Collegeville, MN (56321)

5:37 PM CST on February 06, 2016 (GMT -0600)
Saint Johns University Campus | | Change Station
CLOSE
Current Station
Personal Weather Station
Location: Collegeville, MN
Elevation: 1200 ft
Nearby Weather Stations
Active Advisory: Winter Weather Advisory

Elev 1200 ft 45.58 °N, 94.39 °W | Updated 34 seconds ago

Mostly Cloudy
Mostly Cloudy
35.5 °F
Feels Like 31 °F
N
5.2
Wind Variable Wind from South
Gusts 10.0 mph

Today
High -- | Low -- °F
--% Chance of Precip.
Yesterday
High -- | Low -- °F
Precip. -- in
Pressure 29.87 in
Visibility 10.0 miles
Clouds Few 8000 ft
Few 11000 ft
Windchill 31 °F
Dew Point 29 °F
Humidity 78%
Rainfall 0.00 in
Snow Depth Not available.
7:32 AM 5:30 PM
Waning Crescent, 4% visible
METAR KSTC 062253Z 18013KT 10SM FEW080 FEW110 02/M03 A2980 RMK AO2 SLP113 T00171033
Pressure 29.87 in
Visibility 10.0 miles
Clouds Few 8000 ft
Few 11000 ft
Windchill 31 °F
Dew Point 29 °F
Humidity 78%
Rainfall 0.00 in
Snow Depth Not available.
7:32 AM 5:30 PM
Waning Crescent, 4% visible
METAR KSTC 062253Z 18013KT 10SM FEW080 FEW110 02/M03 A2980 RMK AO2 SLP113 T00171033

10-Day Weather Forecast

Almanac

Astronomy

Feb. 06, 2016 Rise Set
Actual Time
Civil Twilight
Nautical Twilight
Astronomical Twilight
Moon
Length of Visible Light
Length of Day
Tomorrow will be .
, % of the Moon is Illuminated

Today's Extremes

State Highs State Lows

Community

WunderPhotos

Upload Photos

1,891,098 photos uploaded!

WunderBlog® & News

Nearby

Air Quality

  Air Quality AQ Index Pollutant
Not available.

Snow Depth

Station Depth Elevation

Earthquake Activity

City Distance Mag. Time & Date
Minimum magnitude displayed is 2.5.

Coastal Water Temperatures

Place Temperature

Stations

Nearby Weather Stations

Station Location Temp. Windchill Dew Point Humidity Wind Precip. Elev Updated Type
                   

Watches & Warnings

Winter Weather Advisory
Issued: 3:09 PM CST Feb. 6, 2016 – National Weather Service

... Winter Weather Advisory in effect from noon Sunday to noon CST
Monday...

The National Weather Service in Twin Cities/Chanhassen has issued
a Winter Weather Advisory for snow and blowing snow which is in
effect from noon Sunday to noon CST Monday.

* Expect snow to develop around noon Sunday and then diminish
around noon Monday.

* The heaviest snowfall rates will occur between noon and 6 PM
Sunday.

* Total snow accumulations of 1 to 3 inches are expected.

* Winds gusting as high as 45 mph will cause areas of blowing
and drifting snow.

* Plan on slippery Road conditions.

Precautionary/preparedness actions...

A Winter Weather Advisory for snow means periods of snow will
cause primarily travel difficulties. Be prepared for snow covered
roads and limited visibilities... and use caution while driving.
The latest Road conditions for the state you are calling from can
be obtained by calling 5 1 1.